createdAt,value
2018-12-23T00:01:06.978Z,91.50
2018-12-23T00:03:35.972Z,91.50
2018-12-23T00:06:05.265Z,91.50
2018-12-23T00:08:34.799Z,91.50
2018-12-23T00:11:04.790Z,91.50
2018-12-23T00:13:34.080Z,91.50
2018-12-23T00:16:03.908Z,91.50
2018-12-23T00:18:32.955Z,91.40
2018-12-23T00:21:03.128Z,91.40
2018-12-23T00:23:32.572Z,91.40
2018-12-23T00:26:02.398Z,91.40
2018-12-23T00:28:31.368Z,91.40
2018-12-23T00:31:01.231Z,91.90
2018-12-23T00:33:30.335Z,91.60
2018-12-23T00:35:59.384Z,91.60
2018-12-23T00:38:28.344Z,91.70
2018-12-23T00:40:57.591Z,91.70
2018-12-23T00:43:26.736Z,91.80
2018-12-23T00:45:56.119Z,91.90
2018-12-23T00:48:25.265Z,91.90
2018-12-23T00:50:54.331Z,91.90
2018-12-23T00:53:23.453Z,91.90
2018-12-23T00:55:52.607Z,91.90
2018-12-23T00:58:21.529Z,91.80
2018-12-23T01:00:51.192Z,91.80
2018-12-23T01:03:20.077Z,91.80
2018-12-23T01:05:48.883Z,91.80
2018-12-23T01:08:17.699Z,91.80
2018-12-23T01:10:46.468Z,91.80
2018-12-23T01:13:15.295Z,91.80
2018-12-23T01:15:44.074Z,91.80
2018-12-23T01:18:12.944Z,91.80
2018-12-23T01:20:42.919Z,91.80
2018-12-23T01:23:11.723Z,91.80
2018-12-23T01:25:40.548Z,91.80
2018-12-23T01:28:09.353Z,91.90
2018-12-23T01:30:38.134Z,91.80
2018-12-23T01:33:06.913Z,91.90
2018-12-23T01:35:37.308Z,91.90
2018-12-23T01:38:06.511Z,91.90
2018-12-23T01:40:35.296Z,92.00
2018-12-23T01:43:04.096Z,92.00
2018-12-23T01:45:32.899Z,92.00
2018-12-23T01:48:01.925Z,91.90
2018-12-23T01:50:30.802Z,91.90
2018-12-23T01:52:59.609Z,91.90
2018-12-23T01:55:29.057Z,91.90
2018-12-23T01:57:57.840Z,92.00
2018-12-23T02:00:26.712Z,92.00
2018-12-23T02:02:55.525Z,92.00
2018-12-23T02:05:24.374Z,92.00
2018-12-23T02:07:53.208Z,91.90
2018-12-23T02:10:22.060Z,91.90
2018-12-23T02:12:50.924Z,91.90
2018-12-23T02:15:19.724Z,92.00
2018-12-23T02:17:48.739Z,92.00
2018-12-23T02:20:17.547Z,92.00
2018-12-23T02:22:46.329Z,92.10
2018-12-23T02:25:15.202Z,92.00
2018-12-23T02:27:44.420Z,92.10
2018-12-23T02:30:13.888Z,92.10
2018-12-23T02:32:42.686Z,92.10
2018-12-23T02:35:11.488Z,92.10
2018-12-23T02:37:40.316Z,92.10
2018-12-23T02:40:09.152Z,92.00
2018-12-23T02:42:37.984Z,92.00
2018-12-23T02:45:06.886Z,92.10
2018-12-23T02:47:35.663Z,92.10
2018-12-23T02:50:04.742Z,92.10
2018-12-23T02:52:33.615Z,92.20
2018-12-23T02:55:02.396Z,92.20
2018-12-23T02:57:31.214Z,92.20
2018-12-23T02:59:59.997Z,92.20
2018-12-23T03:02:28.784Z,92.20
2018-12-23T03:04:57.582Z,92.30
2018-12-23T03:07:26.408Z,92.40
2018-12-23T03:09:55.212Z,92.50
2018-12-23T03:12:24.247Z,92.40
2018-12-23T03:14:53.037Z,92.50
2018-12-23T03:17:21.824Z,92.50
2018-12-23T03:19:50.609Z,92.60
2018-12-23T03:22:19.558Z,92.60
2018-12-23T03:24:48.701Z,92.60
2018-12-23T03:27:17.847Z,92.50
2018-12-23T03:29:46.844Z,92.60
2018-12-23T03:32:15.639Z,92.60
2018-12-23T03:34:44.682Z,92.60
2018-12-23T03:37:13.507Z,92.60
2018-12-23T03:39:44.472Z,92.60
2018-12-23T03:42:14.110Z,92.60
2018-12-23T03:44:42.919Z,92.60
2018-12-23T03:47:12.916Z,92.60
2018-12-23T03:49:41.951Z,92.60
2018-12-23T03:52:10.736Z,92.60
2018-12-23T03:54:39.647Z,92.60
2018-12-23T03:57:08.452Z,92.60
2018-12-23T03:59:37.268Z,92.60
2018-12-23T04:02:06.066Z,92.60
2018-12-23T04:04:34.945Z,92.60
2018-12-23T04:07:03.945Z,92.60
2018-12-23T04:09:32.789Z,92.60
2018-12-23T04:12:01.774Z,92.60
2018-12-23T04:14:30.832Z,92.60
2018-12-23T04:17:00.012Z,92.60
2018-12-23T04:19:29.312Z,92.60
2018-12-23T04:21:58.366Z,92.60
2018-12-23T04:24:27.198Z,92.60
2018-12-23T04:26:56.294Z,92.60
2018-12-23T04:29:25.328Z,93.00
2018-12-23T04:31:54.124Z,92.70
2018-12-23T04:34:23.270Z,92.70
2018-12-23T04:36:52.240Z,92.60
2018-12-23T04:39:21.046Z,92.60
2018-12-23T04:41:49.946Z,92.60
2018-12-23T04:44:18.905Z,92.60
2018-12-23T04:46:47.760Z,92.60
2018-12-23T04:49:16.575Z,92.70
2018-12-23T04:51:45.426Z,92.70
2018-12-23T04:54:14.403Z,92.70
2018-12-23T04:56:43.203Z,92.70
2018-12-23T04:59:11.971Z,92.80
2018-12-23T05:01:40.767Z,92.80
2018-12-23T05:04:09.544Z,92.80
2018-12-23T05:06:43.303Z,92.80
2018-12-23T05:09:09.899Z,92.80
2018-12-23T05:11:39.674Z,92.80
2018-12-23T05:14:08.700Z,92.80
2018-12-23T05:16:37.492Z,92.80
2018-12-23T05:19:06.382Z,92.90
2018-12-23T05:21:35.254Z,92.90
2018-12-23T05:24:04.356Z,93.00
2018-12-23T05:26:33.803Z,93.00
2018-12-23T05:29:03.571Z,93.00
2018-12-23T05:31:34.422Z,93.10
2018-12-23T05:34:05.801Z,93.00
2018-12-23T05:36:36.974Z,93.00
2018-12-23T05:39:08.348Z,93.00
2018-12-23T05:41:39.629Z,93.00
2018-12-23T05:44:10.283Z,93.00
2018-12-23T05:46:39.356Z,93.00
2018-12-23T05:49:10.501Z,93.00
2018-12-23T05:51:39.524Z,93.30
2018-12-23T05:54:08.614Z,93.50
2018-12-23T05:56:37.541Z,93.50
2018-12-23T05:59:06.488Z,93.50
2018-12-23T06:01:35.845Z,93.60
2018-12-23T06:04:04.840Z,93.50
2018-12-23T06:06:34.444Z,93.50
2018-12-23T06:09:05.896Z,93.50
2018-12-23T06:11:34.984Z,93.50
2018-12-23T06:14:04.091Z,93.50
2018-12-23T06:16:32.871Z,93.50
2018-12-23T06:19:01.925Z,93.50
2018-12-23T06:21:31.016Z,93.50
2018-12-23T06:23:59.972Z,93.60
2018-12-23T06:26:28.752Z,93.60
2018-12-23T06:28:57.910Z,93.70
2018-12-23T06:31:26.822Z,93.70
2018-12-23T06:33:55.759Z,93.60
2018-12-23T06:36:24.562Z,93.60
2018-12-23T06:38:53.352Z,93.60
2018-12-23T06:41:22.579Z,93.60
2018-12-23T06:43:51.362Z,93.80
2018-12-23T06:46:20.481Z,93.80
2018-12-23T06:48:49.582Z,93.80
2018-12-23T06:51:18.364Z,93.80
2018-12-23T06:53:47.462Z,93.80
2018-12-23T06:56:16.399Z,93.80
2018-12-23T06:58:45.476Z,93.80
2018-12-23T07:01:15.216Z,93.80
2018-12-23T07:03:44.340Z,93.80
2018-12-23T07:06:13.280Z,93.80
2018-12-23T07:08:42.057Z,93.90
2018-12-23T07:11:10.875Z,93.90
2018-12-23T07:13:40.026Z,93.90
2018-12-23T07:16:08.808Z,94.10
2018-12-23T07:18:37.723Z,94.10
2018-12-23T07:21:06.693Z,94.10
2018-12-23T07:23:35.532Z,94.00
2018-12-23T07:26:05.470Z,93.90
2018-12-23T07:28:34.591Z,93.80
2018-12-23T07:31:03.830Z,94.00
2018-12-23T07:33:32.778Z,94.10
2018-12-23T07:36:01.852Z,94.10
2018-12-23T07:38:30.668Z,94.00
2018-12-23T07:40:59.507Z,93.80
2018-12-23T07:43:28.292Z,93.70
2018-12-23T07:45:57.356Z,93.70
2018-12-23T07:48:26.196Z,93.60
2018-12-23T07:50:54.986Z,93.40
2018-12-23T07:53:24.372Z,93.20
2018-12-23T07:55:53.143Z,93.10
2018-12-23T07:58:22.012Z,92.90
2018-12-23T08:00:50.850Z,92.90
2018-12-23T08:03:19.948Z,92.70
2018-12-23T08:05:48.844Z,92.50
2018-12-23T08:08:17.691Z,92.50
2018-12-23T08:10:46.520Z,92.40
2018-12-23T08:13:15.386Z,92.00
2018-12-23T08:15:44.200Z,91.80
2018-12-23T08:18:13.088Z,91.80
2018-12-23T08:20:42.215Z,91.80
2018-12-23T08:23:12.060Z,91.70
2018-12-23T08:25:40.900Z,91.70
2018-12-23T08:28:09.752Z,91.80
2018-12-23T08:30:38.916Z,91.90
2018-12-23T08:33:07.873Z,91.70
2018-12-23T08:35:36.676Z,91.70
2018-12-23T08:38:05.521Z,91.60
2018-12-23T08:40:34.408Z,91.50
2018-12-23T08:43:03.314Z,91.50
2018-12-23T08:45:32.108Z,91.20
2018-12-23T08:48:01.187Z,91.00
2018-12-23T08:50:30.082Z,90.80
2018-12-23T08:52:58.910Z,90.60
2018-12-23T08:55:29.960Z,90.50
2018-12-23T08:57:59.239Z,90.30
2018-12-23T09:00:28.346Z,90.10
2018-12-23T09:02:57.300Z,90.00
2018-12-23T09:05:26.592Z,90.00
2018-12-23T09:07:56.287Z,89.40
2018-12-23T09:10:25.350Z,87.30
2018-12-23T09:12:54.348Z,87.50
2018-12-23T09:15:23.580Z,87.80
2018-12-23T09:17:52.692Z,87.80
2018-12-23T09:20:22.071Z,88.10
2018-12-23T09:22:51.298Z,88.30
2018-12-23T09:25:20.643Z,88.10
2018-12-23T09:27:49.964Z,87.60
2018-12-23T09:30:19.256Z,87.20
2018-12-23T09:32:48.195Z,86.50
2018-12-23T09:35:17.423Z,86.10
2018-12-23T09:37:46.663Z,85.50
2018-12-23T09:40:15.879Z,84.90
2018-12-23T09:42:45.192Z,84.60
2018-12-23T09:45:14.076Z,84.90
2018-12-23T09:47:43.314Z,84.80
2018-12-23T09:50:12.822Z,84.60
2018-12-23T09:52:41.917Z,84.40
2018-12-23T09:55:12.096Z,84.20
2018-12-23T09:57:41.827Z,84.00
2018-12-23T10:00:11.332Z,84.00
2018-12-23T10:02:40.168Z,84.00
2018-12-23T10:05:09.090Z,83.80
2018-12-23T10:07:38.476Z,83.80
2018-12-23T10:10:07.393Z,83.80
2018-12-23T10:12:36.244Z,83.70
2018-12-23T10:15:05.586Z,83.50
2018-12-23T10:17:34.923Z,83.30
2018-12-23T10:20:04.096Z,83.20
2018-12-23T10:22:34.060Z,83.00
2018-12-23T10:25:02.896Z,82.70
2018-12-23T10:27:31.819Z,82.50
2018-12-23T10:30:00.657Z,82.90
2018-12-23T10:32:29.488Z,81.20
2018-12-23T10:34:58.332Z,80.70
2018-12-23T10:37:27.144Z,80.50
2018-12-23T10:39:55.997Z,80.70
2018-12-23T10:42:24.851Z,81.00
2018-12-23T10:44:53.812Z,81.20
2018-12-23T10:47:39.486Z,81.40
2018-12-23T10:50:08.389Z,81.80
2018-12-23T10:52:37.260Z,81.90
2018-12-23T10:55:06.132Z,82.10
2018-12-23T10:57:36.123Z,82.30
2018-12-23T11:00:07.119Z,83.30
2018-12-23T11:02:36.093Z,82.60
2018-12-23T11:05:05.765Z,82.80
2018-12-23T11:07:34.852Z,82.50
2018-12-23T11:10:04.611Z,82.60
2018-12-23T11:12:33.432Z,82.70
2018-12-23T11:15:02.257Z,82.80
2018-12-23T11:17:32.054Z,82.70
2018-12-23T11:20:00.873Z,82.30
2018-12-23T11:22:29.734Z,82.00
2018-12-23T11:24:58.643Z,81.80
2018-12-23T11:27:27.504Z,81.30
2018-12-23T11:29:56.409Z,81.00
2018-12-23T11:32:25.248Z,80.80
2018-12-23T11:34:54.955Z,80.80
2018-12-23T11:37:23.873Z,80.70
2018-12-23T11:39:52.689Z,80.90
2018-12-23T11:42:21.501Z,80.70
2018-12-23T11:44:50.360Z,80.60
2018-12-23T11:47:20.420Z,80.40
2018-12-23T11:49:49.246Z,80.30
2018-12-23T11:52:18.116Z,80.00
2018-12-23T11:54:46.928Z,79.80
2018-12-23T11:57:15.863Z,79.60
2018-12-23T11:59:44.696Z,79.00
2018-12-23T12:02:15.360Z,78.90
2018-12-23T12:04:44.474Z,78.90
2018-12-23T12:07:13.311Z,79.00
2018-12-23T12:09:42.120Z,78.80
2018-12-23T12:12:10.976Z,78.70
2018-12-23T12:14:40.035Z,78.80
2018-12-23T12:17:10.174Z,78.70
2018-12-23T12:19:39.488Z,78.70
2018-12-23T12:22:08.353Z,78.60
2018-12-23T12:24:37.330Z,78.50
2018-12-23T12:27:06.137Z,78.60
2018-12-23T12:29:34.983Z,78.90
2018-12-23T12:32:03.885Z,79.20
2018-12-23T12:34:32.801Z,79.40
2018-12-23T12:37:01.734Z,79.60
2018-12-23T12:39:30.523Z,79.70
2018-12-23T12:41:59.440Z,79.80
2018-12-23T12:44:28.308Z,80.00
2018-12-23T12:46:57.233Z,80.40
2018-12-23T12:49:43.421Z,80.60
2018-12-23T12:52:12.489Z,80.80
2018-12-23T12:54:44.848Z,81.00
2018-12-23T12:57:16.996Z,81.10
2018-12-23T12:59:46.324Z,81.30
2018-12-23T13:02:16.810Z,81.50
2018-12-23T13:04:52.065Z,81.60
2018-12-23T13:07:22.110Z,81.80
2018-12-23T13:09:52.667Z,81.90
2018-12-23T13:12:21.873Z,82.00
2018-12-23T13:14:50.881Z,82.00
2018-12-23T13:17:19.757Z,82.10
2018-12-23T13:19:48.637Z,82.20
2018-12-23T13:22:17.481Z,82.30
2018-12-23T13:24:46.321Z,82.40
2018-12-23T13:27:15.355Z,82.50
2018-12-23T13:29:44.988Z,82.60
2018-12-23T13:32:13.816Z,82.80
2018-12-23T13:34:42.628Z,83.00
2018-12-23T13:37:11.916Z,83.10
2018-12-23T13:39:41.263Z,83.30
2018-12-23T13:42:25.219Z,83.40
2018-12-23T13:48:12.343Z,83.50
2018-12-23T13:50:51.107Z,83.80
2018-12-23T13:53:33.859Z,83.70
2018-12-23T13:56:43.750Z,84.30
2018-12-23T14:01:29.043Z,84.50
2018-12-23T14:06:26.357Z,84.70
2018-12-23T14:09:05.919Z,85.00
2018-12-23T14:11:50.483Z,86.00
2018-12-23T14:14:20.801Z,85.40
2018-12-23T14:16:50.855Z,85.50
2018-12-23T14:19:19.723Z,85.50
2018-12-23T14:21:48.564Z,85.50
2018-12-23T14:24:17.372Z,85.50
2018-12-23T14:26:46.297Z,85.50
2018-12-23T14:29:15.200Z,85.50
2018-12-23T14:31:44.182Z,85.50
2018-12-23T14:34:13.899Z,85.60
2018-12-23T14:36:43.432Z,85.70
2018-12-23T14:39:12.308Z,85.80
2018-12-23T14:41:41.135Z,86.00
2018-12-23T14:44:10.157Z,86.00
2018-12-23T14:46:38.970Z,86.10
2018-12-23T14:49:07.892Z,86.20
2018-12-23T14:51:36.780Z,86.20
2018-12-23T14:54:05.613Z,86.30
2018-12-23T14:56:34.656Z,86.50
2018-12-23T14:59:03.667Z,86.50
2018-12-23T15:01:33.992Z,86.50
2018-12-23T15:04:02.827Z,86.60
2018-12-23T15:06:31.850Z,86.70
2018-12-23T15:09:00.756Z,86.60
2018-12-23T15:11:29.794Z,86.60
2018-12-23T15:13:59.256Z,86.70
2018-12-23T15:16:28.116Z,86.80
2018-12-23T15:18:57.060Z,87.00
2018-12-23T15:21:26.017Z,87.10
2018-12-23T15:23:55.106Z,87.20
2018-12-23T15:26:24.403Z,87.30
2018-12-23T15:28:53.659Z,87.40
2018-12-23T15:31:22.522Z,87.50
2018-12-23T15:33:51.419Z,87.60
2018-12-23T15:36:21.924Z,87.70
2018-12-23T15:38:50.857Z,87.90
2018-12-23T15:41:21.454Z,88.10
2018-12-23T15:43:50.360Z,88.10
2018-12-23T15:46:19.340Z,88.20
2018-12-23T15:48:48.234Z,88.40
2018-12-23T15:51:17.126Z,88.50
2018-12-23T15:53:46.012Z,88.70
2018-12-23T15:56:17.876Z,88.70
2018-12-23T15:58:46.708Z,88.80
2018-12-23T16:01:15.566Z,88.90
2018-12-23T16:03:44.399Z,89.10
2018-12-23T16:06:13.206Z,89.30
2018-12-23T16:08:42.108Z,89.40
2018-12-23T16:11:11.012Z,89.50
2018-12-23T16:13:39.838Z,89.70
2018-12-23T16:16:08.728Z,89.90
2018-12-23T16:18:37.663Z,89.70
2018-12-23T16:21:06.915Z,89.70
2018-12-23T16:23:35.760Z,89.90
2018-12-23T16:26:04.616Z,90.00
2018-12-23T16:28:33.472Z,90.30
2018-12-23T16:31:02.644Z,90.30
2018-12-23T16:33:31.951Z,90.30
2018-12-23T16:36:01.791Z,90.30
2018-12-23T16:38:30.674Z,90.30
2018-12-23T16:40:59.501Z,90.40
2018-12-23T16:43:28.431Z,90.30
2018-12-23T16:45:57.312Z,90.30
2018-12-23T16:48:26.227Z,90.30
2018-12-23T16:50:55.052Z,90.30
2018-12-23T16:53:23.886Z,90.30
2018-12-23T16:55:52.696Z,90.30
2018-12-23T16:58:21.612Z,90.40
2018-12-23T17:00:50.551Z,90.40
2018-12-23T17:03:19.411Z,90.40
2018-12-23T17:05:48.816Z,90.40
2018-12-23T17:08:17.660Z,90.40
2018-12-23T17:10:46.764Z,90.50
2018-12-23T17:13:18.057Z,90.50
2018-12-23T17:15:50.043Z,90.50
2018-12-23T17:18:19.075Z,90.50
2018-12-23T17:20:47.988Z,90.50
2018-12-23T17:23:16.787Z,90.60
2018-12-23T17:26:42.689Z,90.60
2018-12-23T17:29:11.228Z,90.90
2018-12-23T17:31:39.743Z,90.80
2018-12-23T17:34:08.182Z,90.80
2018-12-23T17:36:36.551Z,90.80
2018-12-23T17:39:07.598Z,90.80
2018-12-23T17:41:35.954Z,90.80
2018-12-23T17:44:07.654Z,90.70
2018-12-23T17:46:36.086Z,90.70
2018-12-23T17:49:04.726Z,90.70
2018-12-23T17:51:33.052Z,90.70
2018-12-23T17:54:01.542Z,90.70
2018-12-23T17:56:30.130Z,90.70
2018-12-23T17:58:59.093Z,90.70
2018-12-23T18:01:27.421Z,90.70
2018-12-23T18:04:02.265Z,90.40
2018-12-23T18:06:26.635Z,90.70
2018-12-23T18:08:55.102Z,90.70
2018-12-23T18:11:23.542Z,90.80
2018-12-23T18:13:52.006Z,90.70
2018-12-23T18:16:20.788Z,90.70
2018-12-23T18:18:53.556Z,90.70
2018-12-23T18:21:22.133Z,90.70
2018-12-23T18:23:50.561Z,90.80
2018-12-23T18:26:19.023Z,90.70
2018-12-23T18:28:47.382Z,90.70
2018-12-23T18:31:15.812Z,90.80
2018-12-23T18:33:44.229Z,90.80
2018-12-23T18:36:12.661Z,90.80
2018-12-23T18:38:41.461Z,90.80
2018-12-23T18:41:10.069Z,90.80
2018-12-23T18:43:38.482Z,90.80
2018-12-23T18:46:06.997Z,90.80
2018-12-23T18:48:35.380Z,90.70
2018-12-23T18:51:03.777Z,90.70
2018-12-23T18:53:32.198Z,90.70
2018-12-23T18:56:00.580Z,90.60
2018-12-23T18:58:29.072Z,90.60
2018-12-23T19:00:59.922Z,90.60
2018-12-23T19:03:28.333Z,90.60
2018-12-23T19:05:56.813Z,90.90
2018-12-23T19:08:59.351Z,90.60
2018-12-23T19:11:57.494Z,90.60
2018-12-23T19:15:02.134Z,90.60
2018-12-23T19:18:42.565Z,90.50
2018-12-23T19:21:45.340Z,90.50
2018-12-23T19:24:55.701Z,90.50
2018-12-23T19:28:09.833Z,90.50
2018-12-23T19:31:16.177Z,90.50
2018-12-23T19:34:13.661Z,90.50
2018-12-23T19:37:20.165Z,90.50
2018-12-23T19:40:24.698Z,90.50
2018-12-23T19:43:18.334Z,90.50
2018-12-23T19:46:22.514Z,90.50
2018-12-23T19:49:27.522Z,90.50
2018-12-23T19:52:42.083Z,90.60
2018-12-23T19:55:27.258Z,90.60
2018-12-23T19:58:47.105Z,90.70
2018-12-23T20:01:30.369Z,90.80
2018-12-23T20:04:54.729Z,90.80
2018-12-23T20:08:04.385Z,90.90
2018-12-23T20:11:08.786Z,90.90
2018-12-23T20:14:14.357Z,90.90
2018-12-23T20:17:16.053Z,90.90
2018-12-23T20:20:22.846Z,90.90
2018-12-23T20:23:31.746Z,90.90
2018-12-23T20:26:21.810Z,91.00
2018-12-23T20:29:47.419Z,91.00
2018-12-23T20:32:41.621Z,91.00
2018-12-23T20:35:52.550Z,91.30
2018-12-23T20:39:05.212Z,91.40
2018-12-23T20:42:07.865Z,91.40
2018-12-23T20:45:22.804Z,91.30
2018-12-23T20:48:34.696Z,91.30
2018-12-23T20:51:49.930Z,91.30
2018-12-23T20:55:05.854Z,91.30
2018-12-23T20:58:02.125Z,91.30
2018-12-23T21:01:01.715Z,91.20
2018-12-23T21:03:59.204Z,91.30
2018-12-23T21:07:09.287Z,91.30
2018-12-23T21:10:19.708Z,91.30
2018-12-23T21:13:29.260Z,91.30
2018-12-23T21:16:22.019Z,91.30
2018-12-23T21:19:37.338Z,91.30
2018-12-23T21:22:46.769Z,91.30
2018-12-23T21:25:48.286Z,91.30
2018-12-23T21:28:38.092Z,91.30
2018-12-23T21:31:29.466Z,91.30
2018-12-23T21:34:29.784Z,91.30
2018-12-23T21:37:45.369Z,91.60
2018-12-23T21:40:58.466Z,91.60
2018-12-23T21:44:21.505Z,91.60
2018-12-23T21:47:25.935Z,91.50
2018-12-23T21:50:27.541Z,91.40
2018-12-23T21:54:05.829Z,91.40
2018-12-23T21:57:43.052Z,91.40
2018-12-23T22:00:38.477Z,91.30
